sensor_id;sensor_type;location;lat;lon;timestamp;P1;durP1;ratioP1;P2;durP2;ratioP2
35576;SDS011;21680;52.400;16.920;2023-04-24T00:00:00;20.30;;;12.50;;
35576;SDS011;21680;52.400;16.920;2023-04-24T00:02:30;18.00;;;11.40;;
35576;SDS011;21680;52.400;16.920;2023-04-24T00:04:56;22.20;;;12.50;;
35576;SDS011;21680;52.400;16.920;2023-04-24T00:07:22;21.00;;;13.40;;
35576;SDS011;21680;52.400;16.920;2023-04-24T00:09:47;25.30;;;11.70;;
35576;SDS011;21680;52.400;16.920;2023-04-24T00:12:12;24.70;;;13.30;;
35576;SDS011;21680;52.400;16.920;2023-04-24T00:14:38;22.20;;;11.10;;
35576;SDS011;21680;52.400;16.920;2023-04-24T00:17:03;31.40;;;12.30;;
35576;SDS011;21680;52.400;16.920;2023-04-24T00:19:28;23.70;;;12.40;;
35576;SDS011;21680;52.400;16.920;2023-04-24T00:21:54;27.10;;;12.30;;
35576;SDS011;21680;52.400;16.920;2023-04-24T00:24:20;28.70;;;12.40;;
35576;SDS011;21680;52.400;16.920;2023-04-24T00:26:45;25.40;;;12.10;;
35576;SDS011;21680;52.400;16.920;2023-04-24T00:29:11;24.40;;;11.60;;
35576;SDS011;21680;52.400;16.920;2023-04-24T00:31:36;21.80;;;11.80;;
35576;SDS011;21680;52.400;16.920;2023-04-24T00:34:03;22.00;;;11.00;;
35576;SDS011;21680;52.400;16.920;2023-04-24T00:36:29;26.30;;;12.10;;
35576;SDS011;21680;52.400;16.920;2023-04-24T00:38:56;30.20;;;11.80;;
35576;SDS011;21680;52.400;16.920;2023-04-24T00:41:21;23.00;;;11.80;;
35576;SDS011;21680;52.400;16.920;2023-04-24T00:43:47;19.80;;;11.50;;
35576;SDS011;21680;52.400;16.920;2023-04-24T00:46:13;24.20;;;11.00;;
35576;SDS011;21680;52.400;16.920;2023-04-24T00:48:39;22.30;;;11.20;;
35576;SDS011;21680;52.400;16.920;2023-04-24T00:51:05;17.70;;;10.60;;
35576;SDS011;21680;52.400;16.920;2023-04-24T00:53:31;23.80;;;11.10;;
35576;SDS011;21680;52.400;16.920;2023-04-24T00:55:56;14.70;;;10.50;;
35576;SDS011;21680;52.400;16.920;2023-04-24T00:58:22;17.90;;;10.20;;
35576;SDS011;21680;52.400;16.920;2023-04-24T01:00:50;15.90;;;10.40;;
35576;SDS011;21680;52.400;16.920;2023-04-24T01:03:18;17.00;;;10.50;;
35576;SDS011;21680;52.400;16.920;2023-04-24T01:05:47;16.30;;;10.40;;
35576;SDS011;21680;52.400;16.920;2023-04-24T01:08:14;15.80;;;10.00;;
35576;SDS011;21680;52.400;16.920;2023-04-24T01:10:40;13.60;;;9.60;;
35576;SDS011;21680;52.400;16.920;2023-04-24T01:13:09;18.80;;;11.20;;
35576;SDS011;21680;52.400;16.920;2023-04-24T01:15:35;22.40;;;11.60;;
35576;SDS011;21680;52.400;16.920;2023-04-24T01:18:00;18.80;;;10.10;;
35576;SDS011;21680;52.400;16.920;2023-04-24T01:20:25;17.00;;;10.60;;
35576;SDS011;21680;52.400;16.920;2023-04-24T01:22:52;17.00;;;10.60;;
35576;SDS011;21680;52.400;16.920;2023-04-24T01:25:19;19.60;;;11.00;;
35576;SDS011;21680;52.400;16.920;2023-04-24T01:27:45;17.00;;;10.60;;
35576;SDS011;21680;52.400;16.920;2023-04-24T01:30:11;21.20;;;11.40;;
35576;SDS011;21680;52.400;16.920;2023-04-24T01:32:37;19.30;;;10.90;;
35576;SDS011;21680;52.400;16.920;2023-04-24T01:35:04;20.50;;;11.40;;
35576;SDS011;21680;52.400;16.920;2023-04-24T01:37:31;22.80;;;11.90;;
35576;SDS011;21680;52.400;16.920;2023-04-24T01:39:57;19.50;;;11.10;;
35576;SDS011;21680;52.400;16.920;2023-04-24T01:42:22;22.10;;;11.80;;
35576;SDS011;21680;52.400;16.920;2023-04-24T01:44:48;23.50;;;12.50;;
35576;SDS011;21680;52.400;16.920;2023-04-24T01:47:14;22.10;;;11.90;;
35576;SDS011;21680;52.400;16.920;2023-04-24T01:49:40;20.70;;;12.90;;
35576;SDS011;21680;52.400;16.920;2023-04-24T01:52:05;18.50;;;11.70;;
35576;SDS011;21680;52.400;16.920;2023-04-24T01:54:31;17.40;;;11.70;;
35576;SDS011;21680;52.400;16.920;2023-04-24T01:56:56;26.10;;;12.90;;
35576;SDS011;21680;52.400;16.920;2023-04-24T01:59:22;22.10;;;12.90;;
35576;SDS011;21680;52.400;16.920;2023-04-24T02:01:48;20.00;;;12.50;;
35576;SDS011;21680;52.400;16.920;2023-04-24T02:04:15;22.40;;;12.40;;
35576;SDS011;21680;52.400;16.920;2023-04-24T02:06:40;23.80;;;13.20;;
35576;SDS011;21680;52.400;16.920;2023-04-24T02:09:05;18.10;;;12.10;;
35576;SDS011;21680;52.400;16.920;2023-04-24T02:11:31;20.00;;;12.10;;
35576;SDS011;21680;52.400;16.920;2023-04-24T02:13:57;20.50;;;13.30;;
35576;SDS011;21680;52.400;16.920;2023-04-24T02:16:23;25.80;;;13.10;;
35576;SDS011;21680;52.400;16.920;2023-04-24T02:18:48;18.10;;;12.30;;
35576;SDS011;21680;52.400;16.920;2023-04-24T02:21:13;19.20;;;11.80;;
35576;SDS011;21680;52.400;16.920;2023-04-24T02:23:38;20.30;;;11.60;;
35576;SDS011;21680;52.400;16.920;2023-04-24T02:26:04;21.10;;;12.20;;
35576;SDS011;21680;52.400;16.920;2023-04-24T02:28:29;19.10;;;11.30;;
35576;SDS011;21680;52.400;16.920;2023-04-24T02:30:54;22.40;;;12.10;;
35576;SDS011;21680;52.400;16.920;2023-04-24T02:33:20;18.50;;;11.20;;
35576;SDS011;21680;52.400;16.920;2023-04-24T02:35:45;15.80;;;10.40;;
35576;SDS011;21680;52.400;16.920;2023-04-24T02:38:10;20.10;;;12.20;;
35576;SDS011;21680;52.400;16.920;2023-04-24T02:40:35;18.10;;;10.90;;
35576;SDS011;21680;52.400;16.920;2023-04-24T02:43:01;19.20;;;10.90;;
35576;SDS011;21680;52.400;16.920;2023-04-24T02:45:26;17.90;;;10.40;;
35576;SDS011;21680;52.400;16.920;2023-04-24T02:47:51;21.50;;;10.80;;
35576;SDS011;21680;52.400;16.920;2023-04-24T02:50:16;16.60;;;10.90;;
35576;SDS011;21680;52.400;16.920;2023-04-24T02:52:42;18.60;;;10.50;;
35576;SDS011;21680;52.400;16.920;2023-04-24T02:55:07;18.50;;;10.30;;
35576;SDS011;21680;52.400;16.920;2023-04-24T02:57:34;17.40;;;11.20;;
35576;SDS011;21680;52.400;16.920;2023-04-24T03:00:00;16.00;;;9.80;;
35576;SDS011;21680;52.400;16.920;2023-04-24T03:02:25;16.90;;;10.30;;
35576;SDS011;21680;52.400;16.920;2023-04-24T03:04:51;15.90;;;10.10;;
35576;SDS011;21680;52.400;16.920;2023-04-24T03:07:16;14.10;;;9.40;;
35576;SDS011;21680;52.400;16.920;2023-04-24T03:09:41;14.80;;;9.10;;
35576;SDS011;21680;52.400;16.920;2023-04-24T03:12:07;18.80;;;10.00;;
35576;SDS011;21680;52.400;16.920;2023-04-24T03:14:32;17.00;;;10.10;;
35576;SDS011;21680;52.400;16.920;2023-04-24T03:16:58;12.90;;;8.70;;
35576;SDS011;21680;52.400;16.920;2023-04-24T03:19:23;17.90;;;9.30;;
35576;SDS011;21680;52.400;16.920;2023-04-24T03:21:49;13.10;;;9.90;;
35576;SDS011;21680;52.400;16.920;2023-04-24T03:24:15;14.90;;;9.30;;
35576;SDS011;21680;52.400;16.920;2023-04-24T03:26:41;14.90;;;9.70;;
35576;SDS011;21680;52.400;16.920;2023-04-24T03:29:06;14.20;;;9.40;;
35576;SDS011;21680;52.400;16.920;2023-04-24T03:31:31;11.90;;;8.70;;
35576;SDS011;21680;52.400;16.920;2023-04-24T03:33:56;15.00;;;8.80;;
35576;SDS011;21680;52.400;16.920;2023-04-24T03:36:22;13.10;;;8.60;;
35576;SDS011;21680;52.400;16.920;2023-04-24T03:38:47;17.90;;;10.10;;
35576;SDS011;21680;52.400;16.920;2023-04-24T03:41:12;15.80;;;9.80;;
35576;SDS011;21680;52.400;16.920;2023-04-24T03:43:37;16.00;;;9.30;;
35576;SDS011;21680;52.400;16.920;2023-04-24T03:46:04;17.50;;;9.90;;
35576;SDS011;21680;52.400;16.920;2023-04-24T03:48:30;15.30;;;9.80;;
35576;SDS011;21680;52.400;16.920;2023-04-24T03:50:55;15.20;;;9.50;;
35576;SDS011;21680;52.400;16.920;2023-04-24T03:53:20;14.00;;;9.70;;
35576;SDS011;21680;52.400;16.920;2023-04-24T03:55:46;16.60;;;10.30;;
35576;SDS011;21680;52.400;16.920;2023-04-24T03:58:11;14.50;;;9.60;;
35576;SDS011;21680;52.400;16.920;2023-04-24T04:00:39;19.10;;;10.40;;
35576;SDS011;21680;52.400;16.920;2023-04-24T04:03:05;16.20;;;9.90;;
35576;SDS011;21680;52.400;16.920;2023-04-24T04:05:30;15.90;;;10.10;;
35576;SDS011;21680;52.400;16.920;2023-04-24T04:07:56;15.10;;;10.70;;
35576;SDS011;21680;52.400;16.920;2023-04-24T04:10:21;15.00;;;9.80;;
35576;SDS011;21680;52.400;16.920;2023-04-24T04:12:46;18.20;;;10.60;;
35576;SDS011;21680;52.400;16.920;2023-04-24T04:15:11;22.30;;;10.50;;
35576;SDS011;21680;52.400;16.920;2023-04-24T04:17:37;17.50;;;10.20;;
35576;SDS011;21680;52.400;16.920;2023-04-24T04:20:03;16.90;;;10.40;;
35576;SDS011;21680;52.400;16.920;2023-04-24T04:22:33;15.40;;;10.10;;
35576;SDS011;21680;52.400;16.920;2023-04-24T04:24:59;15.20;;;10.60;;
35576;SDS011;21680;52.400;16.920;2023-04-24T04:27:24;16.00;;;10.30;;
35576;SDS011;21680;52.400;16.920;2023-04-24T04:29:50;18.20;;;11.40;;
35576;SDS011;21680;52.400;16.920;2023-04-24T04:32:16;21.30;;;10.60;;
35576;SDS011;21680;52.400;16.920;2023-04-24T04:34:41;18.50;;;11.00;;
35576;SDS011;21680;52.400;16.920;2023-04-24T04:37:07;17.00;;;11.40;;
35576;SDS011;21680;52.400;16.920;2023-04-24T04:39:33;16.40;;;11.20;;
35576;SDS011;21680;52.400;16.920;2023-04-24T04:41:59;16.20;;;10.70;;
35576;SDS011;21680;52.400;16.920;2023-04-24T04:44:25;16.30;;;10.20;;
35576;SDS011;21680;52.400;16.920;2023-04-24T04:46:52;18.40;;;11.90;;
35576;SDS011;21680;52.400;16.920;2023-04-24T04:49:21;19.60;;;10.50;;
35576;SDS011;21680;52.400;16.920;2023-04-24T04:51:48;16.80;;;10.20;;
35576;SDS011;21680;52.400;16.920;2023-04-24T04:54:16;14.90;;;9.70;;
35576;SDS011;21680;52.400;16.920;2023-04-24T04:56:41;20.70;;;9.90;;
35576;SDS011;21680;52.400;16.920;2023-04-24T04:59:07;18.30;;;11.10;;
35576;SDS011;21680;52.400;16.920;2023-04-24T05:01:32;15.20;;;10.40;;
35576;SDS011;21680;52.400;16.920;2023-04-24T05:03:57;17.30;;;10.80;;
35576;SDS011;21680;52.400;16.920;2023-04-24T05:06:22;19.10;;;10.90;;
35576;SDS011;21680;52.400;16.920;2023-04-24T05:08:48;15.10;;;10.30;;
35576;SDS011;21680;52.400;16.920;2023-04-24T05:11:13;17.40;;;10.10;;
35576;SDS011;21680;52.400;16.920;2023-04-24T05:13:39;15.10;;;10.40;;
35576;SDS011;21680;52.400;16.920;2023-04-24T05:16:05;21.50;;;10.70;;
35576;SDS011;21680;52.400;16.920;2023-04-24T05:18:31;15.70;;;10.80;;
35576;SDS011;21680;52.400;16.920;2023-04-24T05:20:56;18.00;;;10.90;;
35576;SDS011;21680;52.400;16.920;2023-04-24T05:23:22;16.50;;;10.00;;
35576;SDS011;21680;52.400;16.920;2023-04-24T05:25:47;13.90;;;10.00;;
35576;SDS011;21680;52.400;16.920;2023-04-24T05:28:12;16.10;;;9.30;;
35576;SDS011;21680;52.400;16.920;2023-04-24T05:30:37;17.70;;;9.70;;
35576;SDS011;21680;52.400;16.920;2023-04-24T05:33:03;16.90;;;11.00;;
35576;SDS011;21680;52.400;16.920;2023-04-24T05:35:28;14.60;;;9.90;;
35576;SDS011;21680;52.400;16.920;2023-04-24T05:37:54;16.10;;;11.10;;
35576;SDS011;21680;52.400;16.920;2023-04-24T05:40:19;18.20;;;10.40;;
35576;SDS011;21680;52.400;16.920;2023-04-24T05:42:44;12.60;;;9.90;;
35576;SDS011;21680;52.400;16.920;2023-04-24T05:45:10;15.90;;;10.40;;
35576;SDS011;21680;52.400;16.920;2023-04-24T05:47:39;14.90;;;10.00;;
35576;SDS011;21680;52.400;16.920;2023-04-24T05:50:05;17.80;;;10.30;;
35576;SDS011;21680;52.400;16.920;2023-04-24T05:52:31;15.90;;;10.60;;
35576;SDS011;21680;52.400;16.920;2023-04-24T05:54:56;19.20;;;9.80;;
35576;SDS011;21680;52.400;16.920;2023-04-24T05:57:21;18.30;;;10.10;;
35576;SDS011;21680;52.400;16.920;2023-04-24T05:59:46;15.70;;;9.80;;
35576;SDS011;21680;52.400;16.920;2023-04-24T06:02:12;16.60;;;9.60;;
35576;SDS011;21680;52.400;16.920;2023-04-24T06:04:37;15.90;;;10.10;;
35576;SDS011;21680;52.400;16.920;2023-04-24T06:07:02;19.70;;;9.80;;
35576;SDS011;21680;52.400;16.920;2023-04-24T06:09:27;18.30;;;10.80;;
35576;SDS011;21680;52.400;16.920;2023-04-24T06:11:53;19.30;;;10.50;;
35576;SDS011;21680;52.400;16.920;2023-04-24T06:14:18;17.90;;;10.00;;
35576;SDS011;21680;52.400;16.920;2023-04-24T06:16:44;15.10;;;10.50;;
35576;SDS011;21680;52.400;16.920;2023-04-24T06:19:11;20.80;;;10.80;;
35576;SDS011;21680;52.400;16.920;2023-04-24T06:21:36;16.60;;;10.50;;
35576;SDS011;21680;52.400;16.920;2023-04-24T06:24:02;17.00;;;9.80;;
35576;SDS011;21680;52.400;16.920;2023-04-24T06:26:29;15.00;;;10.30;;
35576;SDS011;21680;52.400;16.920;2023-04-24T06:28:54;17.00;;;9.90;;
35576;SDS011;21680;52.400;16.920;2023-04-24T06:31:20;25.60;;;10.80;;
35576;SDS011;21680;52.400;16.920;2023-04-24T06:33:45;16.80;;;10.00;;
35576;SDS011;21680;52.400;16.920;2023-04-24T06:36:11;20.40;;;11.00;;
35576;SDS011;21680;52.400;16.920;2023-04-24T06:38:37;20.50;;;11.00;;
35576;SDS011;21680;52.400;16.920;2023-04-24T06:41:02;14.40;;;10.20;;
35576;SDS011;21680;52.400;16.920;2023-04-24T06:43:30;16.80;;;10.50;;
35576;SDS011;21680;52.400;16.920;2023-04-24T06:45:55;12.80;;;8.80;;
35576;SDS011;21680;52.400;16.920;2023-04-24T06:48:21;19.70;;;10.10;;
35576;SDS011;21680;52.400;16.920;2023-04-24T06:50:47;18.10;;;9.90;;
35576;SDS011;21680;52.400;16.920;2023-04-24T06:53:12;19.50;;;10.70;;
35576;SDS011;21680;52.400;16.920;2023-04-24T06:55:39;19.50;;;10.50;;
35576;SDS011;21680;52.400;16.920;2023-04-24T06:58:05;20.20;;;11.20;;
35576;SDS011;21680;52.400;16.920;2023-04-24T07:00:31;17.40;;;9.90;;
35576;SDS011;21680;52.400;16.920;2023-04-24T07:02:56;13.80;;;9.00;;
35576;SDS011;21680;52.400;16.920;2023-04-24T07:05:22;19.00;;;10.80;;
35576;SDS011;21680;52.400;16.920;2023-04-24T07:07:48;23.80;;;10.80;;
35576;SDS011;21680;52.400;16.920;2023-04-24T07:10:14;16.90;;;8.70;;
35576;SDS011;21680;52.400;16.920;2023-04-24T07:12:41;16.90;;;9.90;;
35576;SDS011;21680;52.400;16.920;2023-04-24T07:15:06;16.70;;;9.10;;
35576;SDS011;21680;52.400;16.920;2023-04-24T07:17:33;20.80;;;9.30;;
35576;SDS011;21680;52.400;16.920;2023-04-24T07:20:00;19.00;;;10.20;;
35576;SDS011;21680;52.400;16.920;2023-04-24T07:22:25;14.00;;;9.30;;
35576;SDS011;21680;52.400;16.920;2023-04-24T07:24:51;16.40;;;9.90;;
35576;SDS011;21680;52.400;16.920;2023-04-24T07:27:16;14.00;;;9.30;;
35576;SDS011;21680;52.400;16.920;2023-04-24T07:29:41;16.50;;;8.70;;
35576;SDS011;21680;52.400;16.920;2023-04-24T07:32:07;17.20;;;9.70;;
35576;SDS011;21680;52.400;16.920;2023-04-24T07:34:33;16.70;;;10.50;;
35576;SDS011;21680;52.400;16.920;2023-04-24T07:36:58;15.00;;;9.60;;
35576;SDS011;21680;52.400;16.920;2023-04-24T07:39:24;13.70;;;8.80;;
35576;SDS011;21680;52.400;16.920;2023-04-24T07:41:50;13.40;;;8.80;;
35576;SDS011;21680;52.400;16.920;2023-04-24T07:44:15;13.10;;;9.50;;
35576;SDS011;21680;52.400;16.920;2023-04-24T07:46:40;15.10;;;9.70;;
35576;SDS011;21680;52.400;16.920;2023-04-24T07:49:06;14.90;;;9.30;;
35576;SDS011;21680;52.400;16.920;2023-04-24T07:51:31;13.10;;;8.80;;
35576;SDS011;21680;52.400;16.920;2023-04-24T07:53:58;15.50;;;9.60;;
35576;SDS011;21680;52.400;16.920;2023-04-24T07:56:24;15.60;;;8.90;;
35576;SDS011;21680;52.400;16.920;2023-04-24T07:58:50;16.90;;;9.30;;
35576;SDS011;21680;52.400;16.920;2023-04-24T08:01:15;13.60;;;8.70;;
35576;SDS011;21680;52.400;16.920;2023-04-24T08:03:40;16.10;;;8.20;;
35576;SDS011;21680;52.400;16.920;2023-04-24T08:06:05;13.10;;;8.20;;
35576;SDS011;21680;52.400;16.920;2023-04-24T08:08:32;20.90;;;8.20;;
35576;SDS011;21680;52.400;16.920;2023-04-24T08:10:58;11.90;;;7.90;;
35576;SDS011;21680;52.400;16.920;2023-04-24T08:13:23;15.60;;;8.80;;
35576;SDS011;21680;52.400;16.920;2023-04-24T08:15:49;18.20;;;8.50;;
35576;SDS011;21680;52.400;16.920;2023-04-24T08:18:14;15.20;;;8.20;;
35576;SDS011;21680;52.400;16.920;2023-04-24T08:20:40;10.20;;;7.40;;
35576;SDS011;21680;52.400;16.920;2023-04-24T08:23:06;14.20;;;7.50;;
35576;SDS011;21680;52.400;16.920;2023-04-24T08:25:32;14.70;;;8.50;;
35576;SDS011;21680;52.400;16.920;2023-04-24T08:28:01;15.20;;;8.40;;
35576;SDS011;21680;52.400;16.920;2023-04-24T08:30:29;16.00;;;7.70;;
35576;SDS011;21680;52.400;16.920;2023-04-24T08:32:54;12.20;;;8.00;;
35576;SDS011;21680;52.400;16.920;2023-04-24T08:35:26;11.30;;;7.40;;
35576;SDS011;21680;52.400;16.920;2023-04-24T08:37:52;10.50;;;7.20;;
35576;SDS011;21680;52.400;16.920;2023-04-24T08:40:22;11.70;;;8.30;;
35576;SDS011;21680;52.400;16.920;2023-04-24T08:42:56;16.20;;;8.50;;
35576;SDS011;21680;52.400;16.920;2023-04-24T08:45:24;15.50;;;8.00;;
35576;SDS011;21680;52.400;16.920;2023-04-24T08:47:51;13.70;;;8.20;;
35576;SDS011;21680;52.400;16.920;2023-04-24T08:50:18;14.00;;;7.50;;
35576;SDS011;21680;52.400;16.920;2023-04-24T08:52:44;15.90;;;9.00;;
35576;SDS011;21680;52.400;16.920;2023-04-24T08:55:09;12.80;;;9.00;;
35576;SDS011;21680;52.400;16.920;2023-04-24T08:57:35;15.20;;;8.50;;
35576;SDS011;21680;52.400;16.920;2023-04-24T09:00:03;13.50;;;8.80;;
35576;SDS011;21680;52.400;16.920;2023-04-24T09:02:29;14.90;;;8.30;;
35576;SDS011;21680;52.400;16.920;2023-04-24T09:04:57;15.10;;;8.60;;
35576;SDS011;21680;52.400;16.920;2023-04-24T09:07:24;12.40;;;9.30;;
35576;SDS011;21680;52.400;16.920;2023-04-24T09:09:52;14.60;;;8.80;;
35576;SDS011;21680;52.400;16.920;2023-04-24T09:12:18;18.80;;;9.30;;
35576;SDS011;21680;52.400;16.920;2023-04-24T09:14:44;14.90;;;8.30;;
35576;SDS011;21680;52.400;16.920;2023-04-24T09:17:11;26.60;;;10.50;;
35576;SDS011;21680;52.400;16.920;2023-04-24T09:19:37;16.50;;;8.70;;
35576;SDS011;21680;52.400;16.920;2023-04-24T09:22:06;15.70;;;8.90;;
35576;SDS011;21680;52.400;16.920;2023-04-24T09:24:33;14.90;;;8.90;;
35576;SDS011;21680;52.400;16.920;2023-04-24T09:27:00;16.80;;;9.50;;
35576;SDS011;21680;52.400;16.920;2023-04-24T09:29:27;16.40;;;8.00;;
35576;SDS011;21680;52.400;16.920;2023-04-24T09:31:52;11.10;;;7.90;;
35576;SDS011;21680;52.400;16.920;2023-04-24T09:34:25;14.90;;;7.40;;
35576;SDS011;21680;52.400;16.920;2023-04-24T09:36:51;11.00;;;7.20;;
35576;SDS011;21680;52.400;16.920;2023-04-24T09:39:17;16.00;;;7.50;;
35576;SDS011;21680;52.400;16.920;2023-04-24T09:41:53;13.40;;;7.60;;
35576;SDS011;21680;52.400;16.920;2023-04-24T09:44:42;14.20;;;6.80;;
35576;SDS011;21680;52.400;16.920;2023-04-24T09:47:08;9.60;;;6.00;;
35576;SDS011;21680;52.400;16.920;2023-04-24T09:49:34;11.00;;;6.10;;
35576;SDS011;21680;52.400;16.920;2023-04-24T09:52:05;9.80;;;5.40;;
35576;SDS011;21680;52.400;16.920;2023-04-24T09:54:33;10.90;;;5.40;;
35576;SDS011;21680;52.400;16.920;2023-04-24T09:56:58;9.40;;;5.70;;
35576;SDS011;21680;52.400;16.920;2023-04-24T09:59:25;8.00;;;6.20;;
35576;SDS011;21680;52.400;16.920;2023-04-24T10:01:50;11.20;;;6.70;;
35576;SDS011;21680;52.400;16.920;2023-04-24T10:04:21;6.90;;;5.40;;
35576;SDS011;21680;52.400;16.920;2023-04-24T10:06:51;6.70;;;4.90;;
35576;SDS011;21680;52.400;16.920;2023-04-24T10:09:20;9.70;;;6.10;;
35576;SDS011;21680;52.400;16.920;2023-04-24T10:11:48;13.00;;;6.50;;
35576;SDS011;21680;52.400;16.920;2023-04-24T10:14:15;10.30;;;6.10;;
35576;SDS011;21680;52.400;16.920;2023-04-24T10:16:43;11.70;;;6.20;;
35576;SDS011;21680;52.400;16.920;2023-04-24T10:19:12;12.10;;;6.30;;
35576;SDS011;21680;52.400;16.920;2023-04-24T10:21:38;9.70;;;6.60;;
35576;SDS011;21680;52.400;16.920;2023-04-24T10:24:07;15.40;;;9.30;;
35576;SDS011;21680;52.400;16.920;2023-04-24T10:26:35;9.30;;;7.30;;
35576;SDS011;21680;52.400;16.920;2023-04-24T10:29:03;10.00;;;6.40;;
35576;SDS011;21680;52.400;16.920;2023-04-24T10:31:37;9.40;;;7.50;;
35576;SDS011;21680;52.400;16.920;2023-04-24T10:34:04;14.50;;;7.60;;
35576;SDS011;21680;52.400;16.920;2023-04-24T10:36:30;8.60;;;6.30;;
35576;SDS011;21680;52.400;16.920;2023-04-24T10:38:59;8.50;;;6.90;;
35576;SDS011;21680;52.400;16.920;2023-04-24T10:41:26;9.20;;;7.20;;
35576;SDS011;21680;52.400;16.920;2023-04-24T10:44:13;9.60;;;7.00;;
35576;SDS011;21680;52.400;16.920;2023-04-24T10:46:39;9.60;;;7.40;;
35576;SDS011;21680;52.400;16.920;2023-04-24T10:49:07;10.10;;;7.20;;
35576;SDS011;21680;52.400;16.920;2023-04-24T10:51:52;13.60;;;6.80;;
35576;SDS011;21680;52.400;16.920;2023-04-24T10:54:22;11.60;;;6.50;;
35576;SDS011;21680;52.400;16.920;2023-04-24T10:56:53;10.80;;;6.10;;
35576;SDS011;21680;52.400;16.920;2023-04-24T10:59:39;8.60;;;5.90;;
35576;SDS011;21680;52.400;16.920;2023-04-24T11:02:06;8.90;;;6.30;;
35576;SDS011;21680;52.400;16.920;2023-04-24T11:04:33;9.10;;;5.80;;
35576;SDS011;21680;52.400;16.920;2023-04-24T11:07:00;9.00;;;5.30;;
35576;SDS011;21680;52.400;16.920;2023-04-24T11:09:30;7.00;;;5.80;;
35576;SDS011;21680;52.400;16.920;2023-04-24T11:12:03;5.90;;;4.70;;
35576;SDS011;21680;52.400;16.920;2023-04-24T11:20:02;4.90;;;3.90;;
35576;SDS011;21680;52.400;16.920;2023-04-24T11:22:29;4.30;;;3.40;;
35576;SDS011;21680;52.400;16.920;2023-04-24T11:24:59;5.70;;;2.90;;
35576;SDS011;21680;52.400;16.920;2023-04-24T11:27:27;5.10;;;3.70;;
35576;SDS011;21680;52.400;16.920;2023-04-24T11:30:16;4.10;;;3.50;;
35576;SDS011;21680;52.400;16.920;2023-04-24T11:32:43;5.50;;;3.20;;
35576;SDS011;21680;52.400;16.920;2023-04-24T11:37:47;4.80;;;3.10;;
35576;SDS011;21680;52.400;16.920;2023-04-24T11:40:14;7.00;;;3.30;;
35576;SDS011;21680;52.400;16.920;2023-04-24T11:42:45;5.50;;;2.90;;
35576;SDS011;21680;52.400;16.920;2023-04-24T11:45:16;3.80;;;2.80;;
35576;SDS011;21680;52.400;16.920;2023-04-24T11:50:12;5.40;;;2.70;;
35576;SDS011;21680;52.400;16.920;2023-04-24T11:52:42;2.70;;;2.00;;
35576;SDS011;21680;52.400;16.920;2023-04-24T11:57:43;2.70;;;2.30;;
35576;SDS011;21680;52.400;16.920;2023-04-24T12:00:15;4.20;;;2.20;;
35576;SDS011;21680;52.400;16.920;2023-04-24T12:02:41;3.80;;;2.70;;
35576;SDS011;21680;52.400;16.920;2023-04-24T12:05:07;2.40;;;1.90;;
35576;SDS011;21680;52.400;16.920;2023-04-24T12:07:36;5.30;;;2.70;;
35576;SDS011;21680;52.400;16.920;2023-04-24T12:10:08;3.70;;;2.40;;
35576;SDS011;21680;52.400;16.920;2023-04-24T12:12:34;3.20;;;2.50;;
35576;SDS011;21680;52.400;16.920;2023-04-24T12:15:00;2.40;;;2.20;;
35576;SDS011;21680;52.400;16.920;2023-04-24T12:17:33;4.70;;;2.10;;
35576;SDS011;21680;52.400;16.920;2023-04-24T12:20:00;4.80;;;2.00;;
35576;SDS011;21680;52.400;16.920;2023-04-24T12:22:42;4.40;;;3.10;;
35576;SDS011;21680;52.400;16.920;2023-04-24T12:25:14;4.30;;;2.50;;
35576;SDS011;21680;52.400;16.920;2023-04-24T12:27:43;3.40;;;2.80;;
35576;SDS011;21680;52.400;16.920;2023-04-24T12:30:10;5.30;;;2.10;;
35576;SDS011;21680;52.400;16.920;2023-04-24T12:32:41;8.20;;;2.60;;
35576;SDS011;21680;52.400;16.920;2023-04-24T12:35:08;4.70;;;2.80;;
35576;SDS011;21680;52.400;16.920;2023-04-24T12:37:33;5.90;;;3.10;;
35576;SDS011;21680;52.400;16.920;2023-04-24T12:40:07;7.80;;;2.80;;
35576;SDS011;21680;52.400;16.920;2023-04-24T12:42:41;9.20;;;2.50;;
35576;SDS011;21680;52.400;16.920;2023-04-24T12:45:11;10.90;;;2.80;;
35576;SDS011;21680;52.400;16.920;2023-04-24T12:47:37;11.20;;;2.70;;
35576;SDS011;21680;52.400;16.920;2023-04-24T12:50:03;5.90;;;3.40;;
35576;SDS011;21680;52.400;16.920;2023-04-24T12:52:30;4.70;;;2.70;;
35576;SDS011;21680;52.400;16.920;2023-04-24T12:54:57;6.00;;;2.90;;
35576;SDS011;21680;52.400;16.920;2023-04-24T12:57:24;4.20;;;2.80;;
35576;SDS011;21680;52.400;16.920;2023-04-24T12:59:53;5.10;;;3.20;;
35576;SDS011;21680;52.400;16.920;2023-04-24T13:02:20;7.20;;;2.90;;
35576;SDS011;21680;52.400;16.920;2023-04-24T13:04:47;10.40;;;3.80;;
35576;SDS011;21680;52.400;16.920;2023-04-24T13:07:13;3.80;;;2.70;;
35576;SDS011;21680;52.400;16.920;2023-04-24T13:09:39;7.10;;;2.90;;
35576;SDS011;21680;52.400;16.920;2023-04-24T13:12:06;3.10;;;2.70;;
35576;SDS011;21680;52.400;16.920;2023-04-24T13:14:32;9.00;;;3.80;;
35576;SDS011;21680;52.400;16.920;2023-04-24T13:16:57;4.40;;;3.00;;
35576;SDS011;21680;52.400;16.920;2023-04-24T13:19:26;6.30;;;2.90;;
35576;SDS011;21680;52.400;16.920;2023-04-24T13:21:52;5.20;;;3.00;;
35576;SDS011;21680;52.400;16.920;2023-04-24T13:24:19;4.80;;;3.10;;
35576;SDS011;21680;52.400;16.920;2023-04-24T13:26:45;5.30;;;2.80;;
35576;SDS011;21680;52.400;16.920;2023-04-24T13:29:11;8.40;;;2.50;;
35576;SDS011;21680;52.400;16.920;2023-04-24T13:31:36;3.80;;;2.50;;
35576;SDS011;21680;52.400;16.920;2023-04-24T13:34:02;4.00;;;2.30;;
35576;SDS011;21680;52.400;16.920;2023-04-24T13:36:28;4.40;;;2.10;;
35576;SDS011;21680;52.400;16.920;2023-04-24T13:38:55;5.90;;;1.90;;
35576;SDS011;21680;52.400;16.920;2023-04-24T13:41:20;1.90;;;1.60;;
35576;SDS011;21680;52.400;16.920;2023-04-24T13:43:46;7.90;;;2.20;;
35576;SDS011;21680;52.400;16.920;2023-04-24T13:46:11;5.20;;;1.40;;
35576;SDS011;21680;52.400;16.920;2023-04-24T13:48:36;2.30;;;0.90;;
35576;SDS011;21680;52.400;16.920;2023-04-24T13:51:01;1.40;;;1.10;;
35576;SDS011;21680;52.400;16.920;2023-04-24T13:53:28;1.60;;;1.10;;
35576;SDS011;21680;52.400;16.920;2023-04-24T13:55:53;2.10;;;1.20;;
35576;SDS011;21680;52.400;16.920;2023-04-24T13:58:19;2.20;;;1.40;;
35576;SDS011;21680;52.400;16.920;2023-04-24T14:00:44;2.90;;;1.20;;
35576;SDS011;21680;52.400;16.920;2023-04-24T14:03:10;4.90;;;1.60;;
35576;SDS011;21680;52.400;16.920;2023-04-24T14:05:35;3.10;;;1.40;;
35576;SDS011;21680;52.400;16.920;2023-04-24T14:08:01;4.30;;;1.60;;
35576;SDS011;21680;52.400;16.920;2023-04-24T14:10:26;3.10;;;1.20;;
35576;SDS011;21680;52.400;16.920;2023-04-24T14:12:52;3.80;;;1.40;;
35576;SDS011;21680;52.400;16.920;2023-04-24T14:15:20;5.90;;;1.10;;
35576;SDS011;21680;52.400;16.920;2023-04-24T14:17:47;4.40;;;1.70;;
35576;SDS011;21680;52.400;16.920;2023-04-24T14:20:13;4.20;;;1.50;;
35576;SDS011;21680;52.400;16.920;2023-04-24T14:22:38;3.60;;;1.10;;
35576;SDS011;21680;52.400;16.920;2023-04-24T14:25:04;3.60;;;1.50;;
35576;SDS011;21680;52.400;16.920;2023-04-24T14:27:31;2.70;;;1.20;;
35576;SDS011;21680;52.400;16.920;2023-04-24T14:29:56;3.80;;;1.10;;